Time;durP1;ratioP1;P1;durP2;ratioP2;P2;SDS_P1;SDS_P2;PMS_P1;PMS_P2;Temp;Humidity;BMP_temperature;BMP_pressure;BME280_temperature;BME280_humidity;BME280_pressure;Samples;Min_cycle;Max_cycle;Signal;HPM_P1;HPM_P2
2021/06/20 00:00:57;;;;;;;14.30;11.55;;;;;;;19.24;100.00;100989.72;4845917;29;20117;-75
2021/06/20 00:03:43;;;;;;;18.95;13.38;;;;;;;19.51;100.00;100994.53;4844547;29;20034;-76
2021/06/20 00:06:32;;;;;;;14.55;12.60;;;;;;;19.31;100.00;100984.00;4844690;29;20526;-76
2021/06/20 00:09:19;;;;;;;17.65;12.85;;;;;;;19.74;100.00;100985.41;4844691;29;20072;-76
2021/06/20 00:12:05;;;;;;;22.08;13.80;;;;;;;19.60;100.00;100979.94;4845614;29;20368;-76
2021/06/20 00:14:51;;;;;;;18.85;14.18;;;;;;;19.82;100.00;100980.53;4844161;29;20037;-76
2021/06/20 00:17:37;;;;;;;19.10;13.00;;;;;;;19.74;100.00;100983.59;4844960;29;20098;-76
2021/06/20 00:20:26;;;;;;;17.02;12.68;;;;;;;19.47;100.00;100984.97;4844395;29;20029;-76
2021/06/20 00:23:13;;;;;;;17.88;13.63;;;;;;;19.59;100.00;100986.16;4845235;29;20036;-76
2021/06/20 00:25:58;;;;;;;15.95;13.07;;;;;;;19.68;100.00;100986.56;4845593;29;20193;-76
2021/06/20 00:28:44;;;;;;;15.60;13.90;;;;;;;19.62;100.00;100986.88;4844320;29;20033;-76
2021/06/20 00:31:31;;;;;;;19.85;14.15;;;;;;;19.99;100.00;100993.84;4844769;29;20523;-77
2021/06/20 00:34:16;;;;;;;18.65;13.32;;;;;;;19.71;100.00;100988.19;4843869;29;20034;-77
2021/06/20 00:37:04;;;;;;;20.85;13.63;;;;;;;19.81;100.00;100985.00;4844125;29;20113;-76
2021/06/20 00:39:50;;;;;;;16.85;12.82;;;;;;;19.91;100.00;100993.38;4844152;29;20129;-76
2021/06/20 00:42:37;;;;;;;18.35;13.75;;;;;;;19.81;100.00;100998.28;4844029;29;20186;-76
2021/06/20 00:45:23;;;;;;;19.15;12.70;;;;;;;20.01;100.00;101007.94;4843993;29;20045;-76
2021/06/20 00:48:08;;;;;;;15.88;13.85;;;;;;;19.77;100.00;101004.69;4843888;29;20045;-76
2021/06/20 00:50:54;;;;;;;16.25;13.82;;;;;;;19.90;100.00;100997.84;4843885;29;20097;-76
2021/06/20 00:53:40;;;;;;;19.85;14.25;;;;;;;19.86;100.00;100995.41;4844350;29;20033;-77
2021/06/20 00:56:27;;;;;;;19.38;14.25;;;;;;;19.66;100.00;100995.56;4843582;29;20037;-77
2021/06/20 00:59:12;;;;;;;17.60;13.20;;;;;;;19.84;100.00;100991.97;4843731;29;20052;-76
2021/06/20 01:01:58;;;;;;;17.38;13.23;;;;;;;19.80;100.00;100999.25;4844040;29;20101;-76
2021/06/20 01:04:47;;;;;;;16.08;12.75;;;;;;;19.98;100.00;100998.31;4843572;29;20030;-75
2021/06/20 01:07:33;;;;;;;17.63;12.98;;;;;;;19.84;100.00;100998.13;4844132;29;20041;-76
2021/06/20 01:10:25;;;;;;;15.52;13.75;;;;;;;20.06;100.00;100992.59;4844210;29;20034;-77
2021/06/20 01:13:14;;;;;;;18.25;13.48;;;;;;;20.01;100.00;100998.13;4843646;29;20030;-77
2021/06/20 01:16:00;;;;;;;18.30;13.15;;;;;;;19.81;100.00;101000.94;4843800;29;20052;-77
2021/06/20 01:18:46;;;;;;;21.15;14.20;;;;;;;19.81;100.00;100998.28;4843392;29;20030;-77
2021/06/20 01:21:32;;;;;;;16.85;12.43;;;;;;;19.67;100.00;100998.13;4844472;29;20419;-77
2021/06/20 01:24:18;;;;;;;16.05;13.32;;;;;;;20.07;100.00;100996.97;4843648;29;20045;-77
2021/06/20 01:27:04;;;;;;;15.85;13.82;;;;;;;19.64;100.00;100997.44;4843328;29;20029;-77
2021/06/20 01:29:50;;;;;;;18.13;15.23;;;;;;;19.98;100.00;100992.13;4843736;29;20057;-78
2021/06/20 01:32:35;;;;;;;19.65;13.57;;;;;;;20.13;100.00;100991.38;4843407;29;20038;-77
2021/06/20 01:35:22;;;;;;;20.77;13.40;;;;;;;19.94;100.00;100985.25;4844210;29;20034;-77
2021/06/20 01:38:10;;;;;;;17.25;13.60;;;;;;;20.03;100.00;100984.75;4844209;29;20030;-77
2021/06/20 01:40:56;;;;;;;16.25;13.77;;;;;;;19.80;100.00;100985.09;4843448;29;20034;-78
2021/06/20 01:43:41;;;;;;;16.85;13.32;;;;;;;19.95;100.00;100982.50;4843964;29;20033;-76
2021/06/20 01:46:27;;;;;;;17.00;13.57;;;;;;;20.08;100.00;100988.91;4843474;29;20144;-77
2021/06/20 01:49:13;;;;;;;18.35;15.00;;;;;;;19.87;100.00;100990.00;4843155;29;20497;-77
2021/06/20 01:51:59;;;;;;;20.38;14.80;;;;;;;19.89;100.00;100989.94;4842804;29;20069;-77
2021/06/20 01:54:50;;;;;;;19.80;15.00;;;;;;;19.64;100.00;100992.13;4843592;29;20136;-77
2021/06/20 01:57:38;;;;;;;17.85;15.02;;;;;;;19.74;100.00;100988.94;4843664;29;20102;-77
2021/06/20 02:00:24;;;;;;;15.88;13.90;;;;;;;19.68;100.00;100997.19;4843407;29;20366;-77
2021/06/20 02:03:23;;;;;;;18.88;16.20;;;;;;;19.64;100.00;101000.09;4842780;29;20037;-77
2021/06/20 02:06:08;;;;;;;16.90;14.05;;;;;;;19.81;100.00;100990.31;4843732;29;20185;-77
2021/06/20 02:08:54;;;;;;;16.85;14.95;;;;;;;19.69;100.00;100988.28;4842801;29;20030;-76
2021/06/20 02:11:40;;;;;;;21.65;16.92;;;;;;;19.79;100.00;100986.00;4843757;29;20030;-77
2021/06/20 02:14:26;;;;;;;18.77;15.43;;;;;;;19.66;100.00;100988.44;4843280;29;20049;-77
2021/06/20 02:17:18;;;;;;;19.98;16.48;;;;;;;19.64;100.00;100986.81;4842920;29;20105;-77
2021/06/20 02:20:12;;;;;;;21.35;16.05;;;;;;;19.67;100.00;100982.19;4843509;29;20384;-77
2021/06/20 02:22:58;;;;;;;21.85;17.63;;;;;;;19.53;100.00;100982.00;4842273;29;20029;-77
2021/06/20 02:25:44;;;;;;;19.75;16.58;;;;;;;19.66;100.00;100987.56;4842879;29;20420;-77
2021/06/20 02:28:30;;;;;;;28.10;20.98;;;;;;;19.68;100.00;100983.06;4842452;29;20104;-77
2021/06/20 02:31:16;;;;;;;25.17;17.33;;;;;;;19.20;100.00;100991.59;4842741;29;20101;-77
2021/06/20 02:34:02;;;;;;;21.48;17.20;;;;;;;19.22;100.00;100984.44;4842672;29;20029;-77
2021/06/20 02:36:47;;;;;;;23.27;18.35;;;;;;;19.42;100.00;100991.47;4843385;29;20455;-77
2021/06/20 02:39:34;;;;;;;18.25;16.17;;;;;;;19.28;100.00;100986.81;4846320;29;20098;-77
2021/06/20 02:42:20;;;;;;;18.55;16.58;;;;;;;19.39;100.00;100989.81;4846811;29;20078;-77
2021/06/20 02:45:08;;;;;;;22.45;15.48;;;;;;;19.69;100.00;100992.75;4846014;29;20050;-77
2021/06/20 02:47:54;;;;;;;19.38;15.90;;;;;;;19.54;100.00;100981.09;4846150;29;20093;-77
2021/06/20 02:50:40;;;;;;;19.38;16.27;;;;;;;19.46;100.00;100985.06;4846188;29;20456;-77
2021/06/20 02:53:26;;;;;;;20.38;15.90;;;;;;;19.34;100.00;100978.56;4846968;29;20432;-77
2021/06/20 02:56:12;;;;;;;21.27;15.77;;;;;;;19.33;100.00;100982.13;4845991;29;20041;-77
2021/06/20 02:58:58;;;;;;;17.65;13.90;;;;;;;19.44;100.00;100992.25;4847470;29;20026;-77
2021/06/20 03:01:43;;;;;;;18.35;14.73;;;;;;;19.42;100.00;100988.81;4845919;29;20033;-77
2021/06/20 03:04:29;;;;;;;17.77;14.82;;;;;;;19.14;100.00;100995.41;4845794;29;20428;-77
2021/06/20 03:07:15;;;;;;;17.75;14.68;;;;;;;19.12;100.00;100999.94;4846023;29;20034;-77
2021/06/20 03:10:03;;;;;;;22.33;14.13;;;;;;;19.17;100.00;100997.94;4845508;29;20049;-77
2021/06/20 03:12:49;;;;;;;16.67;14.98;;;;;;;18.90;100.00;101001.03;4846186;29;20397;-77
2021/06/20 03:15:38;;;;;;;19.70;14.75;;;;;;;19.01;100.00;100988.97;4846408;29;20045;-77
2021/06/20 03:18:24;;;;;;;15.32;13.68;;;;;;;19.31;100.00;100983.16;4846046;29;20033;-77
2021/06/20 03:21:11;;;;;;;16.83;14.27;;;;;;;19.16;100.00;100985.59;4845616;29;20057;-77
2021/06/20 03:23:56;;;;;;;16.45;13.65;;;;;;;19.33;100.00;100983.94;4845564;29;20041;-77
2021/06/20 03:26:42;;;;;;;15.95;13.15;;;;;;;19.30;100.00;100989.41;4846428;29;20034;-77
2021/06/20 03:29:28;;;;;;;15.20;12.55;;;;;;;19.53;100.00;100989.97;4845248;29;20094;-77
2021/06/20 03:32:16;;;;;;;14.13;12.23;;;;;;;19.75;100.00;100995.09;4845245;29;20058;-77
2021/06/20 03:35:02;;;;;;;15.27;12.60;;;;;;;19.80;100.00;100991.25;4845406;29;20025;-77
2021/06/20 03:37:48;;;;;;;18.45;13.45;;;;;;;19.64;100.00;100997.44;4845669;29;20030;-77
2021/06/20 03:40:34;;;;;;;14.60;13.10;;;;;;;19.87;100.00;100998.00;4845896;29;20368;-77
2021/06/20 03:43:19;;;;;;;17.27;14.95;;;;;;;19.82;100.00;100991.19;4845239;29;20155;-76
2021/06/20 03:46:05;;;;;;;14.15;12.35;;;;;;;20.04;100.00;100984.69;4844748;29;20046;-76
2021/06/20 03:48:51;;;;;;;14.68;12.48;;;;;;;19.93;100.00;100979.03;4844397;29;20072;-76
2021/06/20 03:51:37;;;;;;;16.90;12.10;;;;;;;20.03;100.00;100972.31;4844799;29;20037;-77
2021/06/20 03:54:24;;;;;;;13.68;11.25;;;;;;;20.04;100.00;100970.50;4844957;29;20026;-76
2021/06/20 03:57:10;;;;;;;16.20;12.75;;;;;;;20.12;100.00;100966.56;4844940;29;20034;-77
2021/06/20 03:59:56;;;;;;;12.90;11.30;;;;;;;20.26;100.00;100963.16;4844921;29;20041;-77
2021/06/20 04:02:42;;;;;;;13.88;12.52;;;;;;;20.14;100.00;100964.69;4845045;29;20062;-77
2021/06/20 04:05:28;;;;;;;12.88;11.05;;;;;;;20.39;100.00;100966.88;4844444;29;20121;-76
2021/06/20 04:08:14;;;;;;;14.52;12.45;;;;;;;20.63;100.00;100965.56;4844743;29;20034;-77
2021/06/20 04:11:00;;;;;;;14.38;11.70;;;;;;;20.48;100.00;100967.25;4844871;29;20425;-77
2021/06/20 04:13:45;;;;;;;13.40;12.02;;;;;;;20.84;100.00;100956.38;4844900;29;20470;-76
2021/06/20 04:16:31;;;;;;;17.38;12.20;;;;;;;21.00;100.00;100951.94;4844769;29;20067;-77
2021/06/20 04:19:17;;;;;;;20.00;15.00;;;;;;;20.55;100.00;100958.00;4845938;29;20034;-77
2021/06/20 04:22:04;;;;;;;17.40;14.80;;;;;;;20.04;100.00;100965.19;4844217;29;20034;-77
2021/06/20 04:24:49;;;;;;;15.32;13.70;;;;;;;20.81;100.00;100954.75;4844861;29;20424;-77
2021/06/20 04:27:35;;;;;;;17.67;15.82;;;;;;;20.48;100.00;100953.06;4844324;29;20030;-78
2021/06/20 04:30:23;;;;;;;20.38;17.60;;;;;;;20.36;100.00;100946.63;4845004;29;20375;-77
2021/06/20 04:33:08;;;;;;;21.17;18.90;;;;;;;20.72;100.00;100933.97;4844430;29;20034;-77
2021/06/20 04:35:54;;;;;;;22.65;19.88;;;;;;;20.61;100.00;100955.00;4844808;29;20044;-78
2021/06/20 04:38:40;;;;;;;23.80;19.83;;;;;;;20.89;100.00;100930.38;4844449;29;20045;-76
2021/06/20 04:41:26;;;;;;;17.52;15.63;;;;;;;20.88;100.00;100936.63;4844152;29;20030;-76
2021/06/20 04:47:22;;;;;;;14.25;12.85;;;;;;;20.68;100.00;100939.53;4845642;29;20045;-76
2021/06/20 04:50:09;;;;;;;13.55;12.25;;;;;;;20.38;100.00;100957.19;4845265;29;20056;-76
2021/06/20 04:52:55;;;;;;;13.48;12.07;;;;;;;20.67;100.00;100948.47;4844227;29;20038;-78
2021/06/20 04:55:40;;;;;;;11.35;10.23;;;;;;;21.26;100.00;100946.00;4844102;29;20535;-77
2021/06/20 04:58:26;;;;;;;8.57;7.78;;;;;;;21.25;100.00;100945.13;4843761;29;20029;-77
2021/06/20 05:01:12;;;;;;;10.73;7.47;;;;;;;21.55;100.00;100931.84;4844861;29;20029;-77
2021/06/20 05:03:58;;;;;;;7.72;7.03;;;;;;;21.34;100.00;100936.59;4844369;29;20102;-77
2021/06/20 05:06:44;;;;;;;7.85;7.05;;;;;;;20.82;100.00;100939.63;4845387;29;20044;-77
2021/06/20 05:09:29;;;;;;;7.03;6.43;;;;;;;20.59;100.00;100958.69;4844867;29;20030;-77
2021/06/20 05:12:16;;;;;;;10.82;8.20;;;;;;;20.50;100.00;100961.84;4845200;29;20360;-77
2021/06/20 05:15:02;;;;;;;8.43;7.60;;;;;;;20.33;100.00;100967.22;4844821;29;20067;-77
2021/06/20 05:17:48;;;;;;;7.10;6.50;;;;;;;20.68;100.00;100963.50;4844700;29;20034;-77
2021/06/20 05:20:34;;;;;;;7.60;5.55;;;;;;;20.64;100.00;100952.16;4844452;29;20034;-77
2021/06/20 05:23:20;;;;;;;6.55;5.80;;;;;;;21.13;100.00;100953.84;4844463;29;20034;-77
2021/06/20 05:26:06;;;;;;;5.90;5.40;;;;;;;20.89;100.00;100949.00;4843975;29;20037;-77
2021/06/20 05:28:52;;;;;;;6.80;5.85;;;;;;;20.79;100.00;100955.78;4844698;29;20514;-78
2021/06/20 05:31:38;;;;;;;6.65;6.05;;;;;;;20.62;100.00;100962.03;4844668;29;20037;-77
2021/06/20 05:34:24;;;;;;;7.38;6.32;;;;;;;20.38;100.00;100971.38;4844146;29;20047;-77
2021/06/20 05:37:10;;;;;;;6.85;6.25;;;;;;;20.67;100.00;100978.63;4844165;29;20040;-78
2021/06/20 05:39:55;;;;;;;7.45;6.75;;;;;;;20.71;100.00;100969.53;4844539;29;20034;-77
2021/06/20 05:42:41;;;;;;;7.13;5.97;;;;;;;21.05;100.00;100961.41;4843889;29;20424;-78
2021/06/20 05:45:27;;;;;;;5.50;5.00;;;;;;;21.33;100.00;100964.22;4843915;29;20042;-77
2021/06/20 05:48:13;;;;;;;5.90;5.40;;;;;;;21.48;100.00;100963.34;4844225;29;20117;-78
2021/06/20 05:50:59;;;;;;;6.28;4.80;;;;;;;21.36;100.00;100958.72;4844378;29;20030;-78
2021/06/20 05:53:46;;;;;;;6.53;5.13;;;;;;;21.55;100.00;100959.38;4845140;29;20520;-78
2021/06/20 05:56:31;;;;;;;5.18;4.78;;;;;;;21.79;100.00;100957.09;4843920;29;20437;-78
2021/06/20 05:59:17;;;;;;;6.45;5.53;;;;;;;22.03;100.00;100955.59;4844028;29;20030;-77
2021/06/20 06:02:03;;;;;;;4.68;4.28;;;;;;;23.46;100.00;100949.06;4844104;29;20034;-76
2021/06/20 06:04:49;;;;;;;4.72;4.30;;;;;;;23.19;100.00;100936.53;4843726;29;20048;-77
2021/06/20 06:07:35;;;;;;;5.82;3.97;;;;;;;23.14;100.00;100929.75;4844938;29;20034;-76
2021/06/20 06:10:21;;;;;;;5.18;4.78;;;;;;;23.04;100.00;100936.69;4843578;29;20109;-76
2021/06/20 06:13:07;;;;;;;6.40;5.80;;;;;;;22.49;100.00;100934.00;4843428;29;20026;-77
2021/06/20 06:15:53;;;;;;;7.20;6.50;;;;;;;21.88;100.00;100937.84;4843609;29;20044;-77
2021/06/20 06:18:39;;;;;;;7.10;6.40;;;;;;;21.53;100.00;100947.91;4844253;29;20417;-77
2021/06/20 06:21:25;;;;;;;8.00;6.45;;;;;;;21.69;100.00;100937.19;4843803;29;20132;-77
2021/06/20 06:24:11;;;;;;;10.30;7.63;;;;;;;21.49;100.00;100949.03;4843570;29;20041;-78
2021/06/20 06:26:57;;;;;;;8.55;7.75;;;;;;;21.17;100.00;100943.84;4843145;29;20037;-77
2021/06/20 06:29:44;;;;;;;9.52;6.82;;;;;;;21.07;100.00;100940.88;4844014;29;20489;-77
2021/06/20 06:32:30;;;;;;;8.15;7.35;;;;;;;21.66;100.00;100940.06;4843686;29;20034;-77
2021/06/20 06:35:16;;;;;;;12.07;8.55;;;;;;;21.89;100.00;100942.22;4842853;29;20105;-77
2021/06/20 06:38:02;;;;;;;13.57;7.38;;;;;;;22.12;100.00;100934.56;4843523;29;20102;-77
2021/06/20 06:40:48;;;;;;;9.60;7.15;;;;;;;21.89;100.00;100936.88;4843479;29;20344;-77
2021/06/20 06:43:34;;;;;;;9.13;7.53;;;;;;;21.85;100.00;100938.91;4843470;29;20041;-77
2021/06/20 06:46:20;;;;;;;9.88;6.60;;;;;;;22.33;100.00;100935.88;4843301;29;20046;-77
2021/06/20 06:49:05;;;;;;;7.43;6.60;;;;;;;22.79;100.00;100937.38;4843817;29;20084;-78
2021/06/20 06:51:51;;;;;;;6.57;5.97;;;;;;;22.41;100.00;100940.75;4843352;29;20514;-77
2021/06/20 06:54:37;;;;;;;6.63;5.50;;;;;;;22.51;100.00;100942.78;4843890;29;20106;-77
2021/06/20 06:57:24;;;;;;;4.93;4.20;;;;;;;22.38;100.00;100951.63;4843288;29;20041;-77
2021/06/20 07:00:12;;;;;;;7.22;5.00;;;;;;;22.22;100.00;100953.53;4843666;29;20456;-77
2021/06/20 07:02:58;;;;;;;7.10;5.32;;;;;;;22.41;100.00;100946.94;4843292;29;20117;-77
2021/06/20 07:05:44;;;;;;;4.38;3.97;;;;;;;22.45;100.00;100951.16;4843081;29;20522;-77
2021/06/20 07:08:29;;;;;;;6.10;4.88;;;;;;;22.49;100.00;100949.16;4843436;29;20118;-76
2021/06/20 07:11:15;;;;;;;7.32;4.35;;;;;;;22.14;100.00;100953.16;4843764;29;20030;-77
2021/06/20 07:14:01;;;;;;;7.47;5.38;;;;;;;22.33;100.00;100953.72;4843668;29;20030;-76
2021/06/20 07:16:47;;;;;;;7.70;5.03;;;;;;;22.63;100.00;100951.84;4843228;29;20464;-76
2021/06/20 07:19:34;;;;;;;6.60;5.30;;;;;;;22.39;100.00;100938.16;4843433;29;20487;-76
2021/06/20 07:22:20;;;;;;;5.20;4.40;;;;;;;22.02;100.00;100946.72;4842715;29;20098;-77
2021/06/20 07:25:07;;;;;;;4.93;4.43;;;;;;;21.90;100.00;100947.47;4847821;29;20034;-76
2021/06/20 07:27:53;;;;;;;6.20;4.95;;;;;;;21.73;100.00;100946.75;4847038;29;20364;-77
2021/06/20 07:30:39;;;;;;;5.35;4.85;;;;;;;21.86;100.00;100937.09;4847075;29;20030;-77
2021/06/20 07:33:24;;;;;;;8.93;4.47;;;;;;;21.82;100.00;100932.91;4846411;29;20511;-76
2021/06/20 07:36:11;;;;;;;4.80;4.40;;;;;;;22.12;100.00;100926.56;4846614;29;20042;-76
2021/06/20 07:38:58;;;;;;;5.72;4.40;;;;;;;22.92;100.00;100919.63;4846016;29;20034;-76
2021/06/20 07:41:44;;;;;;;5.05;4.38;;;;;;;22.92;100.00;100916.97;4846247;29;20538;-77
2021/06/20 07:44:30;;;;;;;4.78;4.38;;;;;;;23.18;100.00;100916.09;4845793;29;20042;-77
2021/06/20 07:47:17;;;;;;;4.60;4.20;;;;;;;23.20;100.00;100914.19;4846167;29;20030;-77
2021/06/20 07:50:08;;;;;;;5.07;4.40;;;;;;;24.02;100.00;100919.34;4846686;29;20038;-77
2021/06/20 07:52:54;;;;;;;4.22;3.92;;;;;;;24.62;100.00;100913.19;4846155;29;20042;-77
2021/06/20 07:55:40;;;;;;;3.90;3.50;;;;;;;24.19;100.00;100919.84;4846241;29;20091;-77
2021/06/20 07:58:26;;;;;;;5.38;4.10;;;;;;;23.44;100.00;100919.75;4845677;29;20041;-77
2021/06/20 08:01:11;;;;;;;4.35;3.95;;;;;;;23.51;100.00;100915.72;4846313;29;20033;-77
2021/06/20 08:03:58;;;;;;;5.72;3.97;;;;;;;23.61;100.00;100922.13;4845622;29;20038;-78
2021/06/20 08:06:44;;;;;;;4.57;4.18;;;;;;;23.70;100.00;100918.00;4846397;29;20038;-77
2021/06/20 08:09:29;;;;;;;5.22;4.00;;;;;;;23.33;100.00;100916.94;4845876;29;20030;-77
2021/06/20 08:12:15;;;;;;;4.60;4.22;;;;;;;23.44;100.00;100911.72;4846148;29;20030;-77
2021/06/20 08:15:01;;;;;;;5.15;3.95;;;;;;;23.80;100.00;100909.22;4846014;29;20071;-78
2021/06/20 08:17:47;;;;;;;4.45;4.05;;;;;;;23.71;100.00;100909.81;4846405;29;20021;-78
2021/06/20 08:20:33;;;;;;;4.47;4.07;;;;;;;24.16;100.00;100908.50;4846344;29;20065;-78
2021/06/20 08:23:18;;;;;;;5.80;4.10;;;;;;;24.30;100.00;100911.09;4845966;29;20033;-78
2021/06/20 08:26:04;;;;;;;5.18;4.20;;;;;;;24.20;100.00;100908.19;4846623;29;20049;-75
2021/06/20 08:28:50;;;;;;;4.38;3.45;;;;;;;24.73;100.00;100904.38;4845726;29;20049;-77
2021/06/20 08:31:36;;;;;;;5.95;3.83;;;;;;;24.94;100.00;100895.63;4845583;29;20468;-77
2021/06/20 08:34:22;;;;;;;5.00;3.90;;;;;;;25.13;100.00;100898.66;4845192;29;20064;-77
2021/06/20 08:37:07;;;;;;;4.32;3.90;;;;;;;24.89;100.00;100900.47;4845344;29;20092;-77
2021/06/20 08:39:54;;;;;;;3.72;3.42;;;;;;;25.58;100.00;100905.06;4844323;29;20034;-77
2021/06/20 08:42:39;;;;;;;4.78;3.90;;;;;;;25.22;100.00;100895.28;4845042;29;20030;-76
2021/06/20 08:45:25;;;;;;;4.00;3.58;;;;;;;24.90;100.00;100894.13;4844761;29;20049;-76
2021/06/20 08:48:12;;;;;;;3.92;3.63;;;;;;;25.65;100.00;100900.94;4845817;29;20026;-77
2021/06/20 08:51:00;;;;;;;6.10;3.40;;;;;;;25.69;100.00;100903.28;4845589;29;20452;-77
2021/06/20 08:53:45;;;;;;;4.18;3.53;;;;;;;25.97;100.00;100902.03;4846006;29;20449;-76
2021/06/20 08:56:31;;;;;;;4.47;3.95;;;;;;;25.87;100.00;100899.16;4846865;29;20033;-77
2021/06/20 08:59:22;;;;;;;5.25;3.97;;;;;;;26.47;100.00;100905.13;4846059;29;20026;-76
2021/06/20 09:02:08;;;;;;;4.68;4.18;;;;;;;25.47;100.00;100905.88;4846220;29;20061;-77
2021/06/20 09:04:58;;;;;;;4.07;3.67;;;;;;;25.75;100.00;100908.19;4845928;29;20030;-77
2021/06/20 09:07:46;;;;;;;4.43;3.78;;;;;;;26.16;100.00;100905.00;4845715;29;20030;-76
2021/06/20 09:10:31;;;;;;;5.60;3.70;;;;;;;25.47;100.00;100903.22;4845532;29;20030;-76
2021/06/20 09:13:17;;;;;;;5.13;3.60;;;;;;;25.52;100.00;100895.66;4844532;29;20034;-77
2021/06/20 09:16:05;;;;;;;4.35;3.88;;;;;;;25.81;100.00;100905.03;4844640;29;20094;-77
2021/06/20 09:18:52;;;;;;;4.10;3.70;;;;;;;25.60;100.00;100898.59;4844817;29;20036;-77
2021/06/20 09:21:38;;;;;;;4.30;4.00;;;;;;;26.25;100.00;100899.75;4844331;29;20427;-76
2021/06/20 09:24:24;;;;;;;3.95;3.65;;;;;;;26.04;100.00;100908.66;4844476;29;20371;-77
2021/06/20 09:27:13;;;;;;;5.68;3.80;;;;;;;25.78;100.00;100899.91;4844561;29;20106;-78
2021/06/20 09:30:14;;;;;;;4.78;3.90;;;;;;;25.36;100.00;100905.00;4844596;29;20037;-77
2021/06/20 09:33:05;;;;;;;4.25;3.85;;;;;;;25.83;100.00;100896.84;4844656;29;20380;-77
2021/06/20 09:35:55;;;;;;;6.03;4.22;;;;;;;25.37;100.00;100890.59;4844076;29;20038;-77
2021/06/20 09:38:41;;;;;;;4.32;3.92;;;;;;;25.17;100.00;100883.16;4844297;29;20472;-77
2021/06/20 09:41:27;;;;;;;4.32;3.92;;;;;;;25.23;100.00;100886.25;4844183;29;20030;-76
2021/06/20 09:44:13;;;;;;;4.88;4.13;;;;;;;25.55;100.00;100879.31;4843926;29;20125;-77
2021/06/20 09:46:58;;;;;;;5.45;4.25;;;;;;;25.32;100.00;100882.06;4843557;29;20041;-77
2021/06/20 09:49:48;;;;;;;4.85;4.20;;;;;;;25.84;100.00;100887.81;4844192;29;20456;-77
2021/06/20 09:52:36;;;;;;;6.82;4.32;;;;;;;25.77;100.00;100889.28;4843754;29;20034;-77
2021/06/20 09:55:22;;;;;;;4.05;3.75;;;;;;;25.98;100.00;100890.31;4843835;29;20041;-76
2021/06/20 09:58:08;;;;;;;4.43;3.80;;;;;;;25.11;100.00;100881.81;4843784;29;20030;-77
2021/06/20 10:00:53;;;;;;;4.32;3.85;;;;;;;25.42;100.00;100878.56;4844132;29;20041;-77
2021/06/20 10:03:40;;;;;;;4.40;3.78;;;;;;;26.12;100.00;100882.03;4843671;29;20464;-76
2021/06/20 10:06:26;;;;;;;4.47;4.07;;;;;;;26.64;100.00;100885.81;4844543;29;20384;-77
2021/06/20 10:09:12;;;;;;;4.60;4.15;;;;;;;27.27;100.00;100877.84;4843652;29;20030;-76
2021/06/20 10:11:58;;;;;;;4.30;3.90;;;;;;;27.37;100.00;100875.25;4843503;29;20037;-77
2021/06/20 10:14:45;;;;;;;5.85;3.80;;;;;;;26.82;100.00;100870.91;4843658;29;20372;-77
2021/06/20 10:17:35;;;;;;;4.95;3.78;;;;;;;27.83;100.00;100869.50;4843989;29;20030;-77
2021/06/20 10:20:22;;;;;;;4.93;3.88;;;;;;;27.97;100.00;100872.72;4842845;29;20136;-77
2021/06/20 10:23:23;;;;;;;4.50;4.10;;;;;;;27.58;100.00;100869.88;4843829;29;20117;-77
2021/06/20 10:26:09;;;;;;;5.30;3.65;;;;;;;27.56;100.00;100863.78;4844057;29;20183;-77
2021/06/20 10:28:55;;;;;;;5.13;3.70;;;;;;;27.32;100.00;100869.38;4843423;29;20037;-77
2021/06/20 10:31:41;;;;;;;5.18;3.70;;;;;;;27.42;100.00;100865.81;4843612;29;20085;-77
2021/06/20 10:34:32;;;;;;;4.47;4.00;;;;;;;27.36;100.00;100857.38;4843894;29;20037;-77
2021/06/20 10:37:21;;;;;;;3.88;3.55;;;;;;;26.75;100.00;100845.47;4843162;29;20045;-77
2021/06/20 10:40:25;;;;;;;4.63;4.03;;;;;;;26.46;100.00;100846.13;4843355;29;20041;-77
2021/06/20 10:43:17;;;;;;;6.03;4.50;;;;;;;26.44;100.00;100842.72;4843452;29;20029;-77
2021/06/20 10:46:12;;;;;;;5.63;4.63;;;;;;;26.06;100.00;100843.09;4843155;29;20054;-77
2021/06/20 10:49:00;;;;;;;5.13;4.63;;;;;;;25.13;100.00;100838.78;4843605;29;20034;-77
2021/06/20 10:51:46;;;;;;;6.28;4.97;;;;;;;24.71;100.00;100839.31;4843366;29;20113;-76
2021/06/20 10:54:31;;;;;;;8.43;6.22;;;;;;;24.65;100.00;100837.06;4843507;29;20057;-76
2021/06/20 10:57:29;;;;;;;8.30;6.53;;;;;;;24.21;100.00;100839.41;4843236;29;20026;-77
2021/06/20 11:00:36;;;;;;;7.47;5.85;;;;;;;25.09;100.00;100829.25;4847519;29;20046;-76
2021/06/20 11:03:27;;;;;;;5.68;5.15;;;;;;;24.56;100.00;100833.22;4846399;29;20045;-76
2021/06/20 11:06:15;;;;;;;8.30;6.20;;;;;;;24.94;100.00;100827.72;4847130;29;20034;-77
2021/06/20 11:09:06;;;;;;;6.28;5.53;;;;;;;25.46;100.00;100820.13;4847577;29;20030;-76
2021/06/20 11:11:54;;;;;;;6.25;5.65;;;;;;;26.37;100.00;100820.81;4847088;29;20302;-77
2021/06/20 11:14:44;;;;;;;5.60;5.10;;;;;;;25.93;100.00;100820.84;4846601;29;20109;-77
2021/06/20 11:17:34;;;;;;;7.38;5.90;;;;;;;26.14;100.00;100819.16;4847211;29;20040;-78
2021/06/20 11:20:21;;;;;;;6.93;5.70;;;;;;;25.35;100.00;100818.28;4846448;29;20120;-78
2021/06/20 11:23:07;;;;;;;6.35;5.38;;;;;;;26.45;100.00;100825.59;4846466;29;20352;-77
2021/06/20 11:25:53;;;;;;;7.88;5.75;;;;;;;25.81;100.00;100820.94;4846706;29;20068;-76
2021/06/20 11:28:39;;;;;;;6.28;5.78;;;;;;;26.23;100.00;100818.41;4846499;29;20030;-78
2021/06/20 11:31:25;;;;;;;7.13;5.57;;;;;;;25.69;100.00;100811.16;4846757;29;20448;-78
2021/06/20 11:34:11;;;;;;;5.60;5.10;;;;;;;26.33;100.00;100807.78;4846145;29;20041;-78
2021/06/20 11:36:57;;;;;;;6.30;5.40;;;;;;;26.25;100.00;100811.09;4846888;29;20041;-78
2021/06/20 11:39:47;;;;;;;5.78;5.28;;;;;;;25.98;100.00;100812.44;4846226;29;20539;-77
2021/06/20 11:42:41;;;;;;;5.78;5.28;;;;;;;25.72;100.00;100816.31;4846686;29;20121;-79
2021/06/20 11:45:31;;;;;;;9.85;5.35;;;;;;;25.30;100.00;100816.94;4845829;29;20046;-78
2021/06/20 11:48:17;;;;;;;9.43;5.55;;;;;;;25.48;100.00;100812.84;4846797;29;20425;-78
2021/06/20 11:51:03;;;;;;;7.10;5.97;;;;;;;25.07;100.00;100807.09;4846024;29;20048;-78
2021/06/20 11:53:49;;;;;;;5.97;5.13;;;;;;;25.50;100.00;100809.06;4846236;29;20041;-78
2021/06/20 11:56:35;;;;;;;8.10;6.30;;;;;;;24.98;100.00;100811.31;4846326;29;20036;-77
2021/06/20 11:59:31;;;;;;;7.22;6.32;;;;;;;25.50;100.00;100821.63;4846136;29;20034;-76
2021/06/20 12:02:17;;;;;;;6.55;5.30;;;;;;;25.30;100.00;100819.59;4845788;29;20132;-78
2021/06/20 12:05:04;;;;;;;6.30;4.97;;;;;;;24.44;100.00;100822.53;4845688;29;20038;-77
2021/06/20 12:07:52;;;;;;;7.43;5.40;;;;;;;24.73;100.00;100823.97;4846192;29;20432;-78
2021/06/20 12:10:42;;;;;;;5.97;5.35;;;;;;;23.96;100.00;100820.72;4844901;29;20051;-78
2021/06/20 12:13:38;;;;;;;7.07;5.53;;;;;;;24.05;100.00;100812.88;4846130;29;20029;-78
2021/06/20 12:16:24;;;;;;;6.20;5.60;;;;;;;24.42;100.00;100813.75;4845630;29;20079;-78
2021/06/20 12:19:15;;;;;;;5.78;5.22;;;;;;;24.94;100.00;100811.63;4846234;29;20124;-78
2021/06/20 12:22:13;;;;;;;7.18;5.63;;;;;;;24.67;100.00;100813.72;4845482;29;20037;-77
2021/06/20 12:25:01;;;;;;;6.80;6.05;;;;;;;24.92;100.00;100809.09;4845350;29;20030;-77
2021/06/20 12:27:47;;;;;;;8.43;5.90;;;;;;;24.88;100.00;100810.31;4845479;29;20487;-78
2021/06/20 12:30:33;;;;;;;7.07;5.50;;;;;;;25.32;100.00;100810.47;4845764;29;20042;-77
2021/06/20 12:33:21;;;;;;;7.22;5.50;;;;;;;25.36;100.00;100809.25;4845076;29;20034;-78
2021/06/20 12:36:07;;;;;;;7.07;5.30;;;;;;;25.80;100.00;100800.44;4845564;29;20185;-77
2021/06/20 12:38:54;;;;;;;6.13;5.25;;;;;;;25.26;100.00;100807.38;4845403;29;20076;-77
2021/06/20 12:41:40;;;;;;;5.63;5.03;;;;;;;25.70;100.00;100803.00;4845903;29;20528;-77
2021/06/20 12:44:37;;;;;;;7.45;5.95;;;;;;;25.76;100.00;100796.31;4844837;29;20540;-78